createdAt,value
2023-03-20T00:01:32.229Z,5.20
2023-03-20T00:04:03.714Z,4.40
2023-03-20T00:06:32.843Z,6.00
2023-03-20T00:09:07.403Z,6.60
2023-03-20T00:11:50.458Z,7.23
2023-03-20T00:14:22.707Z,5.13
2023-03-20T00:16:53.748Z,4.57
2023-03-20T00:19:26.546Z,4.83
2023-03-20T00:21:56.765Z,5.27
2023-03-20T00:24:28.121Z,3.63
2023-03-20T00:26:57.712Z,4.90
2023-03-20T00:29:27.188Z,5.00
2023-03-20T00:31:56.996Z,5.40
2023-03-20T00:34:29.263Z,5.30
2023-03-20T00:36:58.558Z,4.03
2023-03-20T00:39:30.836Z,6.70
2023-03-20T00:42:01.177Z,5.87
2023-03-20T00:44:32.702Z,4.37
2023-03-20T00:47:02.870Z,4.50
2023-03-20T00:49:37.607Z,5.40
2023-03-20T00:52:09.244Z,4.43
2023-03-20T00:54:38.130Z,4.70
2023-03-20T00:57:09.401Z,3.63
2023-03-20T00:59:40.603Z,4.73
2023-03-20T01:02:09.459Z,4.37
2023-03-20T01:04:41.564Z,5.17
2023-03-20T01:07:13.877Z,4.40
2023-03-20T01:09:44.518Z,4.53
2023-03-20T01:12:15.050Z,4.30
2023-03-20T01:14:44.148Z,3.57
2023-03-20T01:17:19.404Z,4.30
2023-03-20T01:19:50.285Z,3.20
2023-03-20T01:22:28.724Z,4.70
2023-03-20T01:25:01.697Z,3.63
2023-03-20T01:27:32.776Z,3.37
2023-03-20T01:30:02.886Z,3.13
2023-03-20T01:32:33.254Z,4.17
2023-03-20T01:35:05.239Z,3.60
2023-03-20T01:37:34.285Z,3.67
2023-03-20T01:40:04.382Z,4.47
2023-03-20T01:42:34.516Z,3.80
2023-03-20T01:45:13.874Z,3.43
2023-03-20T01:47:44.484Z,3.07
2023-03-20T01:50:26.339Z,3.33
2023-03-20T01:52:59.661Z,3.30
2023-03-20T01:55:31.846Z,2.13
2023-03-20T01:58:05.646Z,2.30
2023-03-20T02:00:35.249Z,1.90
2023-03-20T02:03:04.542Z,2.40
2023-03-20T02:05:36.168Z,2.40
2023-03-20T02:08:12.800Z,2.43
2023-03-20T02:10:44.660Z,2.40
2023-03-20T02:13:16.921Z,2.40
2023-03-20T02:16:04.398Z,2.30
2023-03-20T02:18:34.234Z,1.90
2023-03-20T02:21:15.948Z,1.80
2023-03-20T02:24:18.586Z,2.93
2023-03-20T02:26:54.499Z,2.33
2023-03-20T02:29:40.611Z,3.17
2023-03-20T02:32:16.705Z,2.43
2023-03-20T02:35:05.552Z,5.23
2023-03-20T02:38:04.648Z,2.10
2023-03-20T02:40:42.344Z,3.30
2023-03-20T02:43:17.620Z,2.50
2023-03-20T02:45:50.698Z,2.47
2023-03-20T02:48:24.384Z,2.40
2023-03-20T02:50:58.587Z,1.50
2023-03-20T02:53:33.826Z,3.60
2023-03-20T02:56:09.055Z,2.00
2023-03-20T02:58:42.003Z,1.90
2023-03-20T03:01:13.509Z,2.10
2023-03-20T03:03:46.638Z,2.80
2023-03-20T03:06:19.998Z,2.50
2023-03-20T03:08:51.484Z,2.37
2023-03-20T03:11:24.471Z,3.43
2023-03-20T03:13:55.265Z,1.83
2023-03-20T03:16:26.642Z,3.50
2023-03-20T03:19:00.456Z,2.20
2023-03-20T03:21:31.269Z,2.60
2023-03-20T03:24:00.410Z,3.40
2023-03-20T03:26:33.143Z,2.80
2023-03-20T03:29:04.159Z,3.10
2023-03-20T03:31:34.169Z,2.10
2023-03-20T03:34:05.347Z,2.97
2023-03-20T03:36:41.980Z,3.33
2023-03-20T03:39:16.352Z,4.00
2023-03-20T03:41:51.104Z,2.73
2023-03-20T03:44:25.132Z,3.87
2023-03-20T03:46:57.564Z,4.00
2023-03-20T03:49:30.008Z,3.10
2023-03-20T03:52:01.624Z,3.73
2023-03-20T03:54:34.280Z,3.73
2023-03-20T03:57:06.895Z,2.50
2023-03-20T03:59:37.793Z,3.20
2023-03-20T04:02:08.765Z,4.10
2023-03-20T04:04:39.289Z,4.70
2023-03-20T04:07:08.547Z,4.03
2023-03-20T04:09:38.273Z,3.83
2023-03-20T04:12:08.980Z,3.90
2023-03-20T04:14:38.091Z,4.10
2023-03-20T04:17:07.095Z,3.13
2023-03-20T04:19:37.251Z,3.70
2023-03-20T04:22:06.352Z,3.50
2023-03-20T04:24:35.093Z,3.27
2023-03-20T04:27:04.733Z,4.43
2023-03-20T04:29:39.140Z,3.40
2023-03-20T04:32:11.607Z,3.47
2023-03-20T04:34:40.481Z,4.60
2023-03-20T04:37:10.452Z,3.40
2023-03-20T04:39:39.991Z,3.30
2023-03-20T04:42:09.268Z,4.13
2023-03-20T04:44:40.346Z,3.63
2023-03-20T04:47:09.447Z,3.53
2023-03-20T04:49:38.270Z,3.33
2023-03-20T04:52:07.766Z,4.47
2023-03-20T04:54:36.526Z,3.23
2023-03-20T04:57:05.918Z,5.07
2023-03-20T04:59:35.017Z,4.60
2023-03-20T05:02:06.168Z,4.40
2023-03-20T05:04:35.205Z,3.80
2023-03-20T05:07:04.275Z,5.13
2023-03-20T05:09:32.988Z,4.60
2023-03-20T05:12:02.748Z,5.30
2023-03-20T05:14:31.640Z,4.93
2023-03-20T05:17:00.857Z,5.43
2023-03-20T05:19:32.295Z,5.00
2023-03-20T05:22:01.790Z,7.10
2023-03-20T05:24:31.525Z,4.73
2023-03-20T05:27:00.822Z,4.00
2023-03-20T05:29:29.693Z,4.50
2023-03-20T05:31:58.533Z,5.70
2023-03-20T05:34:27.890Z,4.30
2023-03-20T05:36:58.065Z,4.60
2023-03-20T05:39:27.257Z,4.30
2023-03-20T05:41:58.363Z,2.70
2023-03-20T05:44:27.476Z,6.00
2023-03-20T05:46:56.404Z,4.80
2023-03-20T05:49:27.025Z,3.27
2023-03-20T05:51:56.120Z,4.00
2023-03-20T05:54:26.747Z,3.63
2023-03-20T05:56:59.036Z,3.83
2023-03-20T05:59:29.110Z,2.33
2023-03-20T06:01:58.055Z,3.30
2023-03-20T06:04:27.525Z,3.13
2023-03-20T06:06:56.437Z,3.00
2023-03-20T06:09:27.508Z,3.17
2023-03-20T06:11:56.625Z,3.70
2023-03-20T06:14:25.893Z,2.63
2023-03-20T06:16:55.744Z,4.53
2023-03-20T06:19:27.343Z,4.43
2023-03-20T06:21:57.618Z,2.80
2023-03-20T06:24:28.680Z,2.57
2023-03-20T06:26:58.154Z,3.10
2023-03-20T06:29:27.658Z,3.27
2023-03-20T06:31:56.661Z,3.57
2023-03-20T06:34:26.491Z,4.63
2023-03-20T06:36:55.535Z,2.50
2023-03-20T06:39:29.208Z,3.57
2023-03-20T06:42:00.624Z,2.77
2023-03-20T06:44:29.711Z,3.60
2023-03-20T06:46:59.025Z,3.30
2023-03-20T06:49:28.582Z,2.50
2023-03-20T06:51:57.894Z,2.63
2023-03-20T06:54:26.940Z,2.20
2023-03-20T06:56:56.463Z,2.33
2023-03-20T06:59:28.017Z,2.60
2023-03-20T07:01:57.598Z,3.10
2023-03-20T07:04:27.903Z,3.50
2023-03-20T07:06:57.026Z,2.10
2023-03-20T07:09:26.912Z,4.17
2023-03-20T07:11:56.530Z,3.63
2023-03-20T07:14:27.036Z,2.53
2023-03-20T07:16:56.680Z,2.83
2023-03-20T07:19:25.704Z,3.03
2023-03-20T07:21:56.876Z,2.00
2023-03-20T07:24:25.678Z,1.70
2023-03-20T07:26:54.969Z,2.13
2023-03-20T07:29:23.835Z,2.50
2023-03-20T07:31:54.373Z,2.90
2023-03-20T07:34:23.372Z,2.90
2023-03-20T07:36:53.454Z,3.93
2023-03-20T07:39:22.395Z,3.20
2023-03-20T07:41:52.149Z,2.80
2023-03-20T07:44:21.905Z,4.87
2023-03-20T07:46:51.068Z,3.30
2023-03-20T07:49:22.656Z,3.60
2023-03-20T07:51:52.218Z,4.23
2023-03-20T07:54:21.213Z,3.97
2023-03-20T07:56:51.080Z,3.10
2023-03-20T07:59:19.922Z,2.70
2023-03-20T08:01:51.616Z,5.33
2023-03-20T08:04:23.638Z,4.30
2023-03-20T08:06:53.488Z,5.00
2023-03-20T08:09:22.661Z,3.77
2023-03-20T08:11:52.304Z,3.40
2023-03-20T08:14:22.404Z,2.03
2023-03-20T08:17:10.214Z,4.53
2023-03-20T08:19:44.089Z,4.30
2023-03-20T08:22:14.174Z,4.43
2023-03-20T08:24:45.428Z,2.83
2023-03-20T08:27:15.866Z,3.43
2023-03-20T08:29:45.788Z,2.90
2023-03-20T08:32:16.754Z,3.00
2023-03-20T08:34:57.917Z,2.67
2023-03-20T08:37:38.214Z,2.80
2023-03-20T08:40:10.248Z,2.87
2023-03-20T08:42:41.713Z,2.90
2023-03-20T08:45:12.003Z,2.10
2023-03-20T08:47:42.497Z,2.30
2023-03-20T08:50:33.060Z,2.70
2023-03-20T08:53:03.713Z,2.17
2023-03-20T08:55:34.175Z,2.87
2023-03-20T08:58:04.847Z,4.37
2023-03-20T09:00:34.148Z,2.70
2023-03-20T09:03:03.240Z,1.73
2023-03-20T09:05:39.785Z,2.07
2023-03-20T09:08:09.728Z,2.50
2023-03-20T09:10:40.717Z,2.27
2023-03-20T09:13:26.183Z,2.57
2023-03-20T09:15:59.354Z,1.40
2023-03-20T09:18:28.219Z,1.40
2023-03-20T09:21:00.668Z,1.70
2023-03-20T09:23:29.860Z,1.90
2023-03-20T09:26:00.121Z,1.80
2023-03-20T09:28:29.173Z,1.00
2023-03-20T09:30:59.935Z,1.60
2023-03-20T09:33:28.973Z,2.40
2023-03-20T09:36:01.318Z,2.07
2023-03-20T09:38:36.671Z,1.30
2023-03-20T09:41:09.640Z,1.40
2023-03-20T09:43:47.802Z,1.00
2023-03-20T09:46:24.283Z,2.13
2023-03-20T09:48:59.530Z,1.43
2023-03-20T09:51:34.647Z,1.77
2023-03-20T09:54:05.811Z,1.90
2023-03-20T09:56:35.929Z,1.50
2023-03-20T09:59:05.386Z,1.43
2023-03-20T10:01:38.382Z,1.30
2023-03-20T10:04:10.302Z,1.40
2023-03-20T10:06:45.062Z,1.60
2023-03-20T10:09:19.124Z,2.13
2023-03-20T10:11:56.417Z,1.57
2023-03-20T10:14:33.797Z,1.40
2023-03-20T10:17:10.975Z,0.77
2023-03-20T10:19:45.820Z,1.40
2023-03-20T10:22:20.534Z,1.10
2023-03-20T10:24:52.169Z,1.40
2023-03-20T10:27:27.980Z,1.80
2023-03-20T10:30:05.059Z,1.47
2023-03-20T10:32:38.906Z,1.90
2023-03-20T10:35:15.716Z,2.37
2023-03-20T10:37:52.431Z,4.53
2023-03-20T10:40:27.841Z,1.60
2023-03-20T10:43:07.931Z,0.93
2023-03-20T10:45:39.518Z,1.40
2023-03-20T10:48:13.268Z,1.87
2023-03-20T10:50:44.734Z,1.63
2023-03-20T10:53:23.201Z,1.20
2023-03-20T10:55:53.313Z,1.97
2023-03-20T10:58:24.433Z,2.67
2023-03-20T11:00:55.534Z,1.20
2023-03-20T11:03:27.529Z,1.37
2023-03-20T11:06:09.349Z,1.30
2023-03-20T11:08:46.171Z,1.40
2023-03-20T11:11:16.814Z,1.57
2023-03-20T11:13:49.842Z,2.10
2023-03-20T11:16:25.849Z,2.30
2023-03-20T11:18:56.014Z,1.20
2023-03-20T11:21:28.028Z,1.20
2023-03-20T11:23:59.635Z,0.90
2023-03-20T11:26:38.401Z,0.77
2023-03-20T11:29:11.996Z,1.33
2023-03-20T11:31:43.484Z,1.00
2023-03-20T11:34:15.733Z,0.90
2023-03-20T11:37:02.600Z,1.80
2023-03-20T11:39:48.982Z,1.00
2023-03-20T11:42:30.297Z,0.60
2023-03-20T11:45:04.180Z,0.80
2023-03-20T11:47:35.366Z,0.90
2023-03-20T11:50:08.304Z,1.17
2023-03-20T11:52:38.621Z,1.33
2023-03-20T11:55:10.630Z,0.90
2023-03-20T11:57:47.153Z,1.60
2023-03-20T12:00:21.223Z,1.10
2023-03-20T12:02:50.922Z,0.77
2023-03-20T12:05:31.515Z,1.40
2023-03-20T12:08:02.682Z,0.90
2023-03-20T12:10:40.850Z,1.80
2023-03-20T12:13:15.207Z,1.40
2023-03-20T12:15:47.764Z,1.67
2023-03-20T12:18:20.739Z,1.10
2023-03-20T12:20:57.305Z,0.90
2023-03-20T12:23:31.882Z,1.10
2023-03-20T12:26:05.693Z,1.20
2023-03-20T12:28:39.085Z,1.10
2023-03-20T12:31:13.630Z,0.60
2023-03-20T12:33:45.320Z,0.80
2023-03-20T12:36:19.151Z,2.63
2023-03-20T12:38:49.547Z,2.17
2023-03-20T12:41:27.921Z,1.00
2023-03-20T12:44:18.300Z,1.10
2023-03-20T12:46:54.819Z,1.80
2023-03-20T12:49:30.144Z,1.80
2023-03-20T12:52:04.054Z,2.40
2023-03-20T12:54:42.378Z,1.53
2023-03-20T12:57:19.324Z,1.67
2023-03-20T12:59:56.047Z,1.10
2023-03-20T13:02:34.114Z,2.13
2023-03-20T13:05:10.587Z,1.53
2023-03-20T13:07:47.204Z,1.27
2023-03-20T13:10:21.413Z,3.57
2023-03-20T13:13:02.118Z,1.87
2023-03-20T13:15:37.457Z,1.30
2023-03-20T13:18:12.389Z,1.57
2023-03-20T13:20:44.636Z,1.83
2023-03-20T13:23:24.529Z,1.80
2023-03-20T13:26:11.924Z,1.70
2023-03-20T13:28:57.840Z,1.50
2023-03-20T13:31:36.387Z,2.13
2023-03-20T13:34:15.859Z,1.60
2023-03-20T13:36:55.204Z,1.23
2023-03-20T13:39:28.332Z,1.50
2023-03-20T13:41:58.558Z,1.13
2023-03-20T13:44:45.106Z,2.10
2023-03-20T13:47:15.997Z,1.73
2023-03-20T13:49:49.722Z,2.43
2023-03-20T13:52:22.772Z,1.90
2023-03-20T13:54:59.891Z,1.33
2023-03-20T13:57:41.553Z,1.57
2023-03-20T14:00:22.465Z,1.17
2023-03-20T14:02:58.750Z,1.53
2023-03-20T14:05:31.057Z,2.00
2023-03-20T14:08:03.029Z,1.40
2023-03-20T14:10:40.582Z,1.83
2023-03-20T14:13:15.814Z,1.77
2023-03-20T14:15:51.994Z,2.37
2023-03-20T14:18:21.319Z,2.20
2023-03-20T14:20:56.302Z,2.10
2023-03-20T14:23:32.510Z,1.00
2023-03-20T14:26:01.863Z,1.07
2023-03-20T14:28:36.530Z,0.97
2023-03-20T14:31:24.134Z,1.07
2023-03-20T14:34:00.946Z,1.17
2023-03-20T14:36:32.926Z,1.77
2023-03-20T14:39:09.306Z,1.17
2023-03-20T14:41:44.960Z,2.17
2023-03-20T14:44:25.361Z,1.10
2023-03-20T14:46:59.728Z,1.03
2023-03-20T14:49:36.412Z,1.30
2023-03-20T14:52:15.939Z,1.70
2023-03-20T14:54:45.122Z,1.37
2023-03-20T14:57:48.735Z,2.30
2023-03-20T15:00:23.383Z,1.27
2023-03-20T15:03:02.121Z,1.50
2023-03-20T15:05:34.638Z,2.10
2023-03-20T15:08:09.289Z,1.30
2023-03-20T15:10:41.518Z,1.60
2023-03-20T15:13:11.115Z,1.27
2023-03-20T15:15:46.074Z,1.60
2023-03-20T15:18:17.882Z,1.60
2023-03-20T15:20:51.365Z,1.17
2023-03-20T15:23:21.196Z,1.70
2023-03-20T15:25:53.625Z,1.37
2023-03-20T15:28:25.574Z,2.10
2023-03-20T15:30:55.785Z,1.93
2023-03-20T15:33:30.653Z,1.90
2023-03-20T15:36:00.641Z,1.57
2023-03-20T15:38:34.722Z,4.10
2023-03-20T15:41:06.892Z,2.03
2023-03-20T15:43:38.558Z,1.57
2023-03-20T15:46:19.124Z,1.70
2023-03-20T15:48:57.141Z,1.70
2023-03-20T15:51:40.446Z,2.10
2023-03-20T15:54:12.961Z,2.20
2023-03-20T15:56:44.399Z,2.03
2023-03-20T15:59:32.513Z,1.50
2023-03-20T16:02:03.475Z,1.80
2023-03-20T16:04:52.535Z,2.80
2023-03-20T16:07:42.485Z,1.60
2023-03-20T16:10:22.492Z,2.63
2023-03-20T16:13:06.544Z,2.73
2023-03-20T16:18:43.363Z,2.77
2023-03-20T16:21:30.594Z,1.97
2023-03-20T16:24:08.942Z,1.73
2023-03-20T16:26:44.037Z,1.50
2023-03-20T16:29:21.009Z,1.53
2023-03-20T16:32:06.626Z,1.57
2023-03-20T16:38:19.663Z,1.47
2023-03-20T16:43:47.374Z,2.33
2023-03-20T16:46:20.813Z,2.57
2023-03-20T16:48:50.890Z,2.20
2023-03-20T16:51:33.056Z,2.43
2023-03-20T16:54:34.226Z,1.53
2023-03-20T16:57:32.261Z,2.10
2023-03-20T17:00:08.235Z,1.93
2023-03-20T17:02:49.331Z,2.03
2023-03-20T17:08:10.585Z,2.40
2023-03-20T17:10:41.488Z,2.63
2023-03-20T17:13:25.221Z,1.60
2023-03-20T17:19:16.398Z,2.13
2023-03-20T17:22:01.414Z,2.30
2023-03-20T17:24:32.220Z,1.97
2023-03-20T17:27:01.594Z,1.73
2023-03-20T17:29:31.154Z,2.00
2023-03-20T17:32:01.693Z,3.27
2023-03-20T17:34:45.438Z,3.10
2023-03-20T17:37:17.454Z,2.77
2023-03-20T17:39:51.177Z,1.90
2023-03-20T17:42:28.246Z,2.30
2023-03-20T17:44:59.953Z,2.77
2023-03-20T17:47:32.593Z,1.63
2023-03-20T17:50:11.069Z,2.50
2023-03-20T17:52:54.560Z,2.37
2023-03-20T17:55:39.003Z,2.60
2023-03-20T17:58:26.459Z,2.20
2023-03-20T18:01:16.971Z,1.73
2023-03-20T18:03:51.336Z,1.30
2023-03-20T18:06:36.085Z,2.70
2023-03-20T18:09:19.447Z,1.70
2023-03-20T18:12:04.398Z,1.07
2023-03-20T18:14:39.119Z,1.70
2023-03-20T18:17:13.628Z,1.60
2023-03-20T18:19:45.381Z,2.23
2023-03-20T18:22:33.003Z,1.60
2023-03-20T18:25:10.857Z,1.60
2023-03-20T18:27:59.079Z,2.10
2023-03-20T18:33:32.949Z,2.27
2023-03-20T18:36:04.513Z,1.80
2023-03-20T18:38:43.391Z,1.77
2023-03-20T20:23:20.040Z,1.43
2023-03-20T21:16:57.659Z,2.27
2023-03-20T21:23:08.041Z,2.70
2023-03-20T21:44:17.444Z,2.97
2023-03-20T22:19:47.861Z,4.07
2023-03-20T22:45:00.575Z,2.80
2023-03-20T22:47:42.366Z,2.70
2023-03-20T22:50:29.048Z,2.40
2023-03-20T23:02:02.361Z,3.17
2023-03-20T23:04:58.438Z,3.90
2023-03-20T23:07:50.540Z,2.67
2023-03-20T23:10:32.341Z,2.00
2023-03-20T23:13:15.723Z,3.67
2023-03-20T23:15:54.410Z,2.00
2023-03-20T23:18:24.475Z,2.80
2023-03-20T23:21:15.317Z,7.10
2023-03-20T23:23:48.377Z,3.03
2023-03-20T23:26:30.062Z,3.63
2023-03-20T23:29:04.890Z,3.70
2023-03-20T23:34:32.715Z,2.83
2023-03-20T23:37:07.906Z,3.33
2023-03-20T23:39:39.846Z,3.00
2023-03-20T23:42:30.419Z,3.50
2023-03-20T23:45:19.509Z,3.10
2023-03-20T23:48:03.395Z,2.47
2023-03-20T23:50:51.526Z,3.50
2023-03-20T23:53:25.296Z,3.40
2023-03-20T23:55:58.921Z,3.03
2023-03-20T23:58:31.442Z,4.10
